createdAt,value
2023-04-04T00:00:22.262Z,18.80
2023-04-04T00:01:25.528Z,18.80
2023-04-04T00:02:27.946Z,18.90
2023-04-04T00:03:30.765Z,18.90
2023-04-04T00:04:33.451Z,18.90
2023-04-04T00:05:36.438Z,18.90
2023-04-04T00:06:44.220Z,18.90
2023-04-04T00:07:47.691Z,18.90
2023-04-04T00:08:50.043Z,18.80
2023-04-04T00:09:52.423Z,18.80
2023-04-04T00:10:59.526Z,18.80
2023-04-04T00:12:02.700Z,18.90
2023-04-04T00:13:05.679Z,18.80
2023-04-04T00:14:08.618Z,18.90
2023-04-04T00:15:11.625Z,18.80
2023-04-04T00:16:14.076Z,18.80
2023-04-04T00:17:17.066Z,18.70
2023-04-04T00:18:19.457Z,18.70
2023-04-04T00:19:22.695Z,18.80
2023-04-04T00:20:25.106Z,18.80
2023-04-04T00:21:27.762Z,18.70
2023-04-04T00:22:30.281Z,18.70
2023-04-04T00:23:32.645Z,18.80
2023-04-04T00:24:35.558Z,18.80
2023-04-04T00:25:38.616Z,18.80
2023-04-04T00:26:40.968Z,18.80
2023-04-04T00:27:43.757Z,18.70
2023-04-04T00:28:46.170Z,18.70
2023-04-04T00:29:52.462Z,18.70
2023-04-04T00:30:55.152Z,18.70
2023-04-04T00:31:58.140Z,18.80
2023-04-04T00:33:01.907Z,18.80
2023-04-04T00:34:06.050Z,18.70
2023-04-04T00:35:08.974Z,18.80
2023-04-04T00:36:11.704Z,18.80
2023-04-04T00:37:14.269Z,18.80
2023-04-04T00:38:16.706Z,18.80
2023-04-04T00:39:19.063Z,18.80
2023-04-04T00:40:22.518Z,18.80
2023-04-04T00:41:25.016Z,18.80
2023-04-04T00:42:28.639Z,18.70
2023-04-04T00:43:31.772Z,18.70
2023-04-04T00:44:36.346Z,18.60
2023-04-04T00:45:38.932Z,18.60
2023-04-04T00:46:41.369Z,18.60
2023-04-04T00:47:45.017Z,18.60
2023-04-04T00:48:48.392Z,18.60
2023-04-04T00:49:51.233Z,18.60
2023-04-04T00:50:53.603Z,18.60
2023-04-04T00:51:55.914Z,18.50
2023-04-04T00:53:00.145Z,18.50
2023-04-04T00:54:03.590Z,18.50
2023-04-04T00:55:07.312Z,18.50
2023-04-04T00:56:09.865Z,18.50
2023-04-04T00:57:12.449Z,18.50
2023-04-04T00:58:14.852Z,18.50
2023-04-04T00:59:17.384Z,18.50
2023-04-04T01:00:20.714Z,18.50
2023-04-04T01:01:25.637Z,18.40
2023-04-04T01:02:28.325Z,18.40
2023-04-04T01:03:31.944Z,18.40
2023-04-04T01:04:34.933Z,18.40
2023-04-04T01:05:37.342Z,18.40
2023-04-04T01:06:39.815Z,18.40
2023-04-04T01:07:42.862Z,18.40
2023-04-04T01:08:46.955Z,18.40
2023-04-04T01:09:50.447Z,18.40
2023-04-04T01:10:52.921Z,18.40
2023-04-04T01:11:55.882Z,18.40
2023-04-04T01:13:00.918Z,18.40
2023-04-04T01:14:03.896Z,18.40
2023-04-04T01:15:06.589Z,18.40
2023-04-04T01:16:08.984Z,18.40
2023-04-04T01:17:11.602Z,18.40
2023-04-04T01:18:19.129Z,18.30
2023-04-04T01:19:31.120Z,18.30
2023-04-04T01:20:40.514Z,18.30
2023-04-04T01:21:46.442Z,18.30
2023-04-04T01:22:51.704Z,18.30
2023-04-04T01:24:04.168Z,18.30
2023-04-04T01:25:34.641Z,18.30
2023-04-04T01:26:41.905Z,18.30
2023-04-04T01:27:44.736Z,18.30
2023-04-04T01:28:50.363Z,18.20
2023-04-04T01:29:54.105Z,18.20
2023-04-04T01:30:59.920Z,18.30
2023-04-04T01:32:08.818Z,18.20
2023-04-04T01:33:22.709Z,18.20
2023-04-04T01:34:48.399Z,18.20
2023-04-04T01:36:00.202Z,18.30
2023-04-04T01:37:36.105Z,18.20
2023-04-04T01:39:02.314Z,18.20
2023-04-04T01:40:15.671Z,18.10
2023-04-04T01:41:20.475Z,18.10
2023-04-04T01:42:29.128Z,18.10
2023-04-04T01:43:34.006Z,18.20
2023-04-04T01:44:37.879Z,18.20
2023-04-04T01:45:40.929Z,18.20
2023-04-04T01:46:46.843Z,18.20
2023-04-04T01:47:49.267Z,18.20
2023-04-04T01:48:55.186Z,18.20
2023-04-04T01:50:01.777Z,18.20
2023-04-04T01:51:04.285Z,18.20
2023-04-04T01:52:07.437Z,18.20
2023-04-04T01:53:09.997Z,18.20
2023-04-04T01:54:12.487Z,18.20
2023-04-04T01:55:15.511Z,18.20
2023-04-04T01:56:18.333Z,18.20
2023-04-04T01:57:21.142Z,18.20
2023-04-04T01:58:23.759Z,18.20
2023-04-04T01:59:26.392Z,18.20
2023-04-04T02:00:29.002Z,18.20
2023-04-04T02:01:33.256Z,18.20
2023-04-04T02:02:36.703Z,18.20
2023-04-04T02:03:39.126Z,18.20
2023-04-04T02:04:42.163Z,18.20
2023-04-04T02:05:44.696Z,18.30
2023-04-04T02:06:47.523Z,18.30
2023-04-04T02:07:52.725Z,18.30
2023-04-04T02:09:04.354Z,18.30
2023-04-04T02:10:07.369Z,18.30
2023-04-04T02:11:10.299Z,18.30
2023-04-04T02:12:12.721Z,18.30
2023-04-04T02:13:15.262Z,18.30
2023-04-04T02:14:17.763Z,18.30
2023-04-04T02:15:20.294Z,18.30
2023-04-04T02:16:22.830Z,18.30
2023-04-04T02:17:28.265Z,18.30
2023-04-04T02:18:30.939Z,18.30
2023-04-04T02:19:33.594Z,18.30
2023-04-04T02:20:36.116Z,18.30
2023-04-04T02:21:38.622Z,18.30
2023-04-04T02:22:41.018Z,18.30
2023-04-04T02:23:43.436Z,18.30
2023-04-04T02:24:45.868Z,18.30
2023-04-04T02:25:50.935Z,18.30
2023-04-04T02:26:53.687Z,18.30
2023-04-04T02:27:56.125Z,18.30
2023-04-04T02:28:58.500Z,18.30
2023-04-04T02:30:00.870Z,18.30
2023-04-04T02:31:03.573Z,18.20
2023-04-04T02:32:06.127Z,18.20
2023-04-04T02:33:08.714Z,18.20
2023-04-04T02:34:11.372Z,18.20
2023-04-04T02:35:13.889Z,18.20
2023-04-04T02:36:16.511Z,18.20
2023-04-04T02:37:19.229Z,18.20
2023-04-04T02:38:22.701Z,18.20
2023-04-04T02:39:25.972Z,18.20
2023-04-04T02:40:28.346Z,18.20
2023-04-04T02:41:30.705Z,18.20
2023-04-04T02:42:33.116Z,18.20
2023-04-04T02:43:35.737Z,18.20
2023-04-04T02:44:42.595Z,18.30
2023-04-04T02:45:49.276Z,18.20
2023-04-04T02:47:02.397Z,18.10
2023-04-04T02:48:07.727Z,18.10
2023-04-04T02:49:18.436Z,18.20
2023-04-04T02:50:23.946Z,18.20
2023-04-04T02:51:33.513Z,18.20
2023-04-04T02:52:36.699Z,18.10
2023-04-04T02:53:44.498Z,18.10
2023-04-04T02:55:00.835Z,18.20
2023-04-04T02:56:08.820Z,18.20
2023-04-04T02:57:11.289Z,18.20
2023-04-04T02:58:13.778Z,18.20
2023-04-04T02:59:17.074Z,18.30
2023-04-04T03:00:20.156Z,17.40
2023-04-04T03:01:22.657Z,16.80
2023-04-04T03:02:26.100Z,16.60
2023-04-04T03:03:28.790Z,16.90
2023-04-04T03:04:31.973Z,17.30
2023-04-04T03:05:34.509Z,17.70
2023-04-04T03:06:37.650Z,17.90
2023-04-04T03:07:40.283Z,18.20
2023-04-04T03:08:43.738Z,18.40
2023-04-04T03:09:46.362Z,18.50
2023-04-04T03:10:48.977Z,18.70
2023-04-04T03:11:51.758Z,18.80
2023-04-04T03:12:54.370Z,18.90
2023-04-04T03:13:57.643Z,19.00
2023-04-04T03:15:21.440Z,19.10
2023-04-04T03:16:24.122Z,19.20
2023-04-04T03:17:27.811Z,19.30
2023-04-04T03:18:30.485Z,19.30
2023-04-04T03:19:33.258Z,19.30
2023-04-04T03:20:36.086Z,18.90
2023-04-04T03:21:38.624Z,18.20
2023-04-04T03:22:42.037Z,18.00
2023-04-04T03:23:44.486Z,17.70
2023-04-04T03:24:47.074Z,18.00
2023-04-04T03:25:51.867Z,18.30
2023-04-04T03:26:54.294Z,18.60
2023-04-04T03:27:57.231Z,18.80
2023-04-04T03:29:04.264Z,18.90
2023-04-04T03:30:08.418Z,19.10
2023-04-04T03:31:11.016Z,19.20
2023-04-04T03:32:15.794Z,19.20
2023-04-04T03:33:19.323Z,19.30
2023-04-04T03:34:24.601Z,19.40
2023-04-04T03:35:27.034Z,19.50
2023-04-04T03:36:30.958Z,19.50
2023-04-04T03:37:33.438Z,19.60
2023-04-04T03:38:37.001Z,19.60
2023-04-04T03:39:39.561Z,19.60
2023-04-04T03:40:43.958Z,19.60
2023-04-04T03:41:48.313Z,19.60
2023-04-04T03:42:51.440Z,19.60
2023-04-04T03:43:55.687Z,19.60
2023-04-04T03:44:59.556Z,19.60
2023-04-04T03:46:07.584Z,19.60
2023-04-04T03:47:10.199Z,19.60
2023-04-04T03:48:12.523Z,19.60
2023-04-04T03:49:16.255Z,19.60
2023-04-04T03:50:18.799Z,19.60
2023-04-04T03:51:27.431Z,19.60
2023-04-04T03:52:30.583Z,19.70
2023-04-04T03:53:35.725Z,19.70
2023-04-04T03:54:39.492Z,19.70
2023-04-04T03:55:44.531Z,19.70
2023-04-04T03:56:46.926Z,19.70
2023-04-04T03:57:50.108Z,19.70
2023-04-04T03:58:55.798Z,19.70
2023-04-04T03:59:58.895Z,19.80
2023-04-04T04:01:03.616Z,19.80
2023-04-04T04:02:07.002Z,19.80
2023-04-04T04:03:09.469Z,19.90
2023-04-04T04:04:13.974Z,19.90
2023-04-04T04:05:16.295Z,19.90
2023-04-04T04:06:18.622Z,19.80
2023-04-04T04:07:21.449Z,19.90
2023-04-04T04:08:25.262Z,19.90
2023-04-04T04:09:28.393Z,19.80
2023-04-04T04:10:31.255Z,19.90
2023-04-04T04:11:34.198Z,19.90
2023-04-04T04:12:36.635Z,19.90
2023-04-04T04:13:40.349Z,19.90
2023-04-04T04:14:43.443Z,19.90
2023-04-04T04:15:46.544Z,19.90
2023-04-04T04:16:54.198Z,20.00
2023-04-04T04:17:58.061Z,20.00
2023-04-04T04:19:04.615Z,20.00
2023-04-04T04:20:13.061Z,20.00
2023-04-04T04:21:26.507Z,20.00
2023-04-04T04:22:32.112Z,20.00
2023-04-04T04:23:34.850Z,20.00
2023-04-04T04:24:37.923Z,20.00
2023-04-04T04:25:41.406Z,20.00
2023-04-04T04:26:51.460Z,20.00
2023-04-04T04:27:57.373Z,20.00
2023-04-04T04:29:00.314Z,20.00
2023-04-04T04:30:06.632Z,20.00
2023-04-04T04:31:14.343Z,20.00
2023-04-04T04:32:21.539Z,20.00
2023-04-04T04:33:31.633Z,20.10
2023-04-04T04:34:38.345Z,20.10
2023-04-04T04:35:41.584Z,20.10
2023-04-04T04:36:44.906Z,20.10
2023-04-04T04:37:56.408Z,20.10
2023-04-04T04:38:58.711Z,20.10
2023-04-04T04:40:05.212Z,20.10
2023-04-04T04:41:33.863Z,20.10
2023-04-04T04:42:37.274Z,20.10
2023-04-04T04:43:41.361Z,20.10
2023-04-04T04:44:46.030Z,20.10
2023-04-04T04:45:48.833Z,20.10
2023-04-04T04:46:52.131Z,20.10
2023-04-04T04:47:55.034Z,20.10
2023-04-04T04:48:57.551Z,20.20
2023-04-04T04:50:05.343Z,20.20
2023-04-04T04:51:15.197Z,20.20
2023-04-04T04:52:29.252Z,20.20
2023-04-04T04:53:31.867Z,20.20
2023-04-04T04:54:35.126Z,20.20
2023-04-04T04:55:37.631Z,20.20
2023-04-04T04:56:44.223Z,20.20
2023-04-04T04:57:48.350Z,20.20
2023-04-04T04:59:02.457Z,20.20
2023-04-04T05:00:05.648Z,20.20
2023-04-04T05:01:08.158Z,20.20
2023-04-04T05:02:16.704Z,20.20
2023-04-04T05:03:22.087Z,20.20
2023-04-04T05:04:25.979Z,20.20
2023-04-04T05:05:38.291Z,20.10
2023-04-04T05:06:45.060Z,20.10
2023-04-04T05:07:48.788Z,20.10
2023-04-04T05:08:51.816Z,20.20
2023-04-04T05:10:02.282Z,20.20
2023-04-04T05:11:05.643Z,20.20
2023-04-04T05:12:09.389Z,20.20
2023-04-04T05:13:18.585Z,20.20
2023-04-04T05:14:22.557Z,20.20
2023-04-04T05:15:30.434Z,20.30
2023-04-04T05:16:35.748Z,20.30
2023-04-04T05:17:43.519Z,20.30
2023-04-04T05:18:49.811Z,20.30
2023-04-04T05:19:52.758Z,20.30
2023-04-04T05:20:57.682Z,20.30
2023-04-04T05:22:11.570Z,20.30
2023-04-04T05:23:20.790Z,20.30
2023-04-04T05:24:26.529Z,20.30
2023-04-04T05:25:30.152Z,20.30
2023-04-04T05:26:34.681Z,20.30
2023-04-04T05:27:38.229Z,20.30
2023-04-04T05:28:41.340Z,20.40
2023-04-04T05:29:43.922Z,20.30
2023-04-04T05:30:46.753Z,20.30
2023-04-04T05:31:54.224Z,20.30
2023-04-04T05:33:05.779Z,20.30
2023-04-04T05:34:08.538Z,20.40
2023-04-04T05:35:15.005Z,20.40
2023-04-04T05:36:18.051Z,20.30
2023-04-04T05:37:26.655Z,20.40
2023-04-04T05:38:30.529Z,20.40
2023-04-04T05:39:33.179Z,20.40
2023-04-04T05:40:40.382Z,20.40
2023-04-04T05:41:48.988Z,20.40
2023-04-04T05:42:58.436Z,20.40
2023-04-04T05:44:07.016Z,20.40
2023-04-04T05:45:10.628Z,20.40
2023-04-04T05:46:13.129Z,20.40
2023-04-04T05:47:22.505Z,20.40
2023-04-04T05:48:26.386Z,20.40
2023-04-04T05:49:30.083Z,20.50
2023-04-04T05:50:34.953Z,20.50
2023-04-04T05:51:40.060Z,20.50
2023-04-04T05:52:47.177Z,20.40
2023-04-04T05:54:03.598Z,20.50
2023-04-04T05:55:10.033Z,20.50
2023-04-04T05:56:14.518Z,20.40
2023-04-04T05:57:27.954Z,20.50
2023-04-04T05:58:34.046Z,20.50
2023-04-04T05:59:41.811Z,20.50
2023-04-04T06:00:48.987Z,20.50
2023-04-04T06:02:47.388Z,20.50
2023-04-04T06:04:04.149Z,20.50
2023-04-04T06:05:14.938Z,20.50
2023-04-04T06:06:29.856Z,20.50
2023-04-04T06:07:35.235Z,20.50
2023-04-04T06:08:52.509Z,20.50
2023-04-04T06:10:01.760Z,20.50
2023-04-04T06:11:12.479Z,20.50
2023-04-04T06:12:17.670Z,20.50
2023-04-04T06:13:27.103Z,20.50
2023-04-04T06:14:41.308Z,20.60
2023-04-04T06:15:57.681Z,20.50
2023-04-04T06:17:05.118Z,20.60
2023-04-04T06:18:07.900Z,20.60
2023-04-04T06:19:21.876Z,20.60
2023-04-04T06:20:30.862Z,20.60
2023-04-04T06:21:33.440Z,20.60
2023-04-04T06:22:36.442Z,20.60
2023-04-04T06:23:47.789Z,20.60
2023-04-04T06:24:50.657Z,20.60
2023-04-04T06:26:03.341Z,20.60
2023-04-04T06:27:09.409Z,20.60
2023-04-04T06:28:16.072Z,20.60
2023-04-04T06:29:22.676Z,20.60
2023-04-04T06:30:26.022Z,20.60
2023-04-04T06:31:31.542Z,20.60
2023-04-04T06:32:40.665Z,20.60
2023-04-04T06:33:45.483Z,20.60
2023-04-04T06:34:48.971Z,20.60
2023-04-04T06:35:55.242Z,20.60
2023-04-04T06:36:59.379Z,20.60
2023-04-04T06:38:06.968Z,20.60
2023-04-04T06:39:14.413Z,20.60
2023-04-04T06:40:22.729Z,20.70
2023-04-04T06:41:28.148Z,20.70
2023-04-04T06:42:30.903Z,20.70
2023-04-04T06:43:40.960Z,20.70
2023-04-04T06:44:43.482Z,20.70
2023-04-04T06:45:50.979Z,20.70
2023-04-04T06:46:56.193Z,20.70
2023-04-04T06:48:01.423Z,20.70
2023-04-04T06:49:06.483Z,20.70
2023-04-04T06:50:10.397Z,20.70
2023-04-04T06:51:13.141Z,20.70
2023-04-04T06:52:20.314Z,20.70
2023-04-04T06:54:41.113Z,20.70
2023-04-04T06:55:46.470Z,20.70
2023-04-04T06:56:54.289Z,20.70
2023-04-04T06:57:57.098Z,20.70
2023-04-04T06:58:59.782Z,20.70
2023-04-04T07:00:03.639Z,20.70
2023-04-04T07:01:08.832Z,20.70
2023-04-04T07:02:11.688Z,20.60
2023-04-04T07:03:14.348Z,20.60
2023-04-04T07:04:20.219Z,20.70
2023-04-04T07:05:22.872Z,20.60
2023-04-04T07:06:29.224Z,20.60
2023-04-04T07:07:32.175Z,20.70
2023-04-04T07:08:36.901Z,20.70
2023-04-04T07:09:44.896Z,20.70
2023-04-04T07:10:51.420Z,20.70
2023-04-04T07:11:56.536Z,20.70
2023-04-04T07:13:03.944Z,20.70
2023-04-04T07:14:14.876Z,20.70
2023-04-04T07:15:20.380Z,20.70
2023-04-04T07:16:24.818Z,20.70
2023-04-04T07:17:41.396Z,20.70
2023-04-04T07:18:50.836Z,20.70
2023-04-04T07:19:56.223Z,20.70
2023-04-04T07:20:59.609Z,20.70
2023-04-04T07:22:07.082Z,20.70
2023-04-04T07:23:14.570Z,20.70
2023-04-04T07:24:20.573Z,20.70
2023-04-04T07:25:27.793Z,20.70
2023-04-04T07:26:32.509Z,20.70
2023-04-04T07:27:37.945Z,20.70
2023-04-04T07:28:40.811Z,20.70
2023-04-04T07:29:49.828Z,20.70
2023-04-04T07:31:11.971Z,20.70
2023-04-04T07:32:14.879Z,20.80
2023-04-04T07:33:17.808Z,20.70
2023-04-04T07:34:27.161Z,20.80
2023-04-04T07:35:32.996Z,20.80
2023-04-04T07:36:40.827Z,20.70
2023-04-04T07:37:43.654Z,20.80
2023-04-04T07:38:47.973Z,20.80
2023-04-04T07:39:51.979Z,20.80
2023-04-04T07:40:55.902Z,20.80
2023-04-04T07:42:05.945Z,20.80
2023-04-04T07:43:12.890Z,20.80
2023-04-04T07:44:15.897Z,20.80
2023-04-04T07:45:18.938Z,20.80
2023-04-04T07:46:27.674Z,20.80
2023-04-04T07:47:52.742Z,20.80
2023-04-04T07:48:59.885Z,20.80
2023-04-04T07:50:06.277Z,20.90
2023-04-04T07:51:12.723Z,20.80
2023-04-04T07:52:30.254Z,20.90
2023-04-04T07:53:46.554Z,20.90
2023-04-04T07:55:01.768Z,20.90
2023-04-04T07:56:15.641Z,20.90
2023-04-04T08:02:38.492Z,20.90
2023-04-04T08:04:43.991Z,20.90
2023-04-04T08:09:50.990Z,20.90
2023-04-04T08:11:45.949Z,20.90
2023-04-04T08:13:14.213Z,20.90
2023-04-04T08:18:33.526Z,20.90
2023-04-04T08:24:41.962Z,20.90
2023-04-04T08:25:58.093Z,20.90
2023-04-04T08:27:21.143Z,20.90
2023-04-04T08:28:35.257Z,20.90
2023-04-04T08:29:40.606Z,20.90
2023-04-04T08:30:50.208Z,20.90
2023-04-04T08:32:32.320Z,20.90
2023-04-04T08:33:44.573Z,20.90
2023-04-04T08:34:49.955Z,20.80
2023-04-04T08:36:46.815Z,20.80
2023-04-04T08:38:48.200Z,20.90
2023-04-04T08:40:34.966Z,20.90
2023-04-04T08:42:03.697Z,21.00
2023-04-04T08:43:55.491Z,21.00
2023-04-04T08:45:49.927Z,21.00
2023-04-04T08:50:05.385Z,21.00
2023-04-04T08:55:43.965Z,21.00
2023-04-04T08:57:46.257Z,21.00
2023-04-04T09:08:18.054Z,21.10
2023-04-04T09:09:29.229Z,21.10
2023-04-04T09:13:53.723Z,21.10
2023-04-04T09:15:12.424Z,21.10
2023-04-04T09:17:28.892Z,21.10
2023-04-04T09:42:17.925Z,21.10
2023-04-04T09:51:00.760Z,21.10
2023-04-04T10:05:26.165Z,21.20
2023-04-04T10:07:54.966Z,21.10
2023-04-04T10:09:25.403Z,21.20
2023-04-04T10:16:38.717Z,21.20
2023-04-04T10:18:13.100Z,21.20
2023-04-04T10:19:34.972Z,21.20
2023-04-04T10:20:48.905Z,21.20
2023-04-04T10:23:24.108Z,21.20
2023-04-04T10:30:49.837Z,21.20
2023-04-04T10:32:33.085Z,21.20
2023-04-04T10:36:04.970Z,20.90
2023-04-04T10:39:20.450Z,20.60
2023-04-04T10:41:17.338Z,20.40
2023-04-04T10:42:58.237Z,20.40
2023-04-04T10:44:26.873Z,20.30
2023-04-04T10:45:32.361Z,20.30
2023-04-04T10:46:50.049Z,20.40
2023-04-04T10:48:02.606Z,20.40
2023-04-04T10:49:16.669Z,20.30
2023-04-04T10:50:31.908Z,20.30
2023-04-04T10:51:55.909Z,20.10
2023-04-04T10:53:23.453Z,20.00
2023-04-04T10:54:31.609Z,19.90
2023-04-04T10:55:46.114Z,19.70
2023-04-04T10:57:07.634Z,19.70
2023-04-04T10:58:25.574Z,19.90
2023-04-04T10:59:37.725Z,19.90
2023-04-04T11:00:54.142Z,19.90
2023-04-04T11:02:07.279Z,19.90
2023-04-04T11:03:16.050Z,20.10
2023-04-04T11:04:23.535Z,20.00
2023-04-04T11:05:49.287Z,20.10
2023-04-04T11:07:14.051Z,20.10
2023-04-04T11:08:25.268Z,20.10
2023-04-04T11:09:57.929Z,20.20
2023-04-04T11:11:22.454Z,20.20
2023-04-04T11:12:31.544Z,20.30
2023-04-04T11:14:05.585Z,20.30
2023-04-04T11:15:19.636Z,20.30
2023-04-04T11:17:04.265Z,20.30
2023-04-04T11:18:21.439Z,20.30
2023-04-04T11:19:33.475Z,20.40
2023-04-04T11:20:56.058Z,20.30
2023-04-04T11:26:04.897Z,20.30
2023-04-04T11:27:19.661Z,20.20
2023-04-04T11:28:45.331Z,20.10
2023-04-04T11:30:17.023Z,20.10
2023-04-04T11:31:54.315Z,20.10
2023-04-04T11:33:18.609Z,20.20
2023-04-04T11:34:33.578Z,20.10
2023-04-04T11:35:40.623Z,20.20
2023-04-04T11:38:05.804Z,20.10
2023-04-04T11:39:35.558Z,20.00
2023-04-04T11:40:56.021Z,19.70
2023-04-04T11:42:14.588Z,19.70
2023-04-04T11:43:24.916Z,19.80
2023-04-04T11:44:35.185Z,19.90
2023-04-04T11:45:49.189Z,20.00
2023-04-04T11:47:02.651Z,19.90
2023-04-04T11:48:06.978Z,20.00
2023-04-04T11:49:12.428Z,20.10
2023-04-04T11:50:15.948Z,20.10
2023-04-04T11:51:19.015Z,20.20
2023-04-04T11:52:25.418Z,20.20
2023-04-04T11:53:31.807Z,20.30
2023-04-04T11:54:34.480Z,20.30
2023-04-04T11:55:42.849Z,20.30
2023-04-04T11:56:49.448Z,20.30
2023-04-04T11:57:55.502Z,20.30
2023-04-04T11:59:08.674Z,20.30
2023-04-04T12:00:36.041Z,20.40
2023-04-04T12:01:41.633Z,20.00
2023-04-04T12:02:44.398Z,19.80
2023-04-04T12:03:49.072Z,19.80
2023-04-04T12:04:52.309Z,19.90
2023-04-04T12:05:54.719Z,19.80
2023-04-04T12:07:00.022Z,19.90
2023-04-04T12:08:04.637Z,20.00
2023-04-04T12:09:07.155Z,20.00
2023-04-04T12:10:10.934Z,20.10
2023-04-04T12:11:16.058Z,20.10
2023-04-04T12:12:18.609Z,20.10
2023-04-04T12:13:27.031Z,20.10
2023-04-04T12:14:33.178Z,20.20
2023-04-04T12:15:38.256Z,20.10
2023-04-04T12:16:41.464Z,20.20
2023-04-04T12:17:45.839Z,20.30
2023-04-04T12:18:49.788Z,20.30
2023-04-04T12:19:52.310Z,20.30
2023-04-04T12:20:57.071Z,20.30
2023-04-04T12:21:59.553Z,20.30
2023-04-04T12:23:02.263Z,20.30
2023-04-04T12:24:04.929Z,20.40
2023-04-04T12:25:08.179Z,20.30
2023-04-04T12:26:11.442Z,20.20
2023-04-04T12:27:15.263Z,20.30
2023-04-04T12:28:18.341Z,20.30
2023-04-04T12:29:23.089Z,20.30
2023-04-04T12:30:25.800Z,20.40
2023-04-04T12:31:29.784Z,20.40
2023-04-04T12:32:32.559Z,20.40
2023-04-04T12:33:36.745Z,20.50
2023-04-04T12:34:48.971Z,20.50
2023-04-04T12:35:57.889Z,20.50
2023-04-04T12:37:04.520Z,20.40
2023-04-04T12:38:16.110Z,20.30
2023-04-04T12:39:21.607Z,20.30
2023-04-04T12:40:24.133Z,20.30
2023-04-04T12:41:27.854Z,20.20
2023-04-04T12:42:32.392Z,20.10
2023-04-04T12:43:42.411Z,20.10
2023-04-04T12:44:45.459Z,20.00
2023-04-04T12:45:51.922Z,20.10
2023-04-04T12:46:58.886Z,20.30
2023-04-04T12:48:01.929Z,20.30
2023-04-04T12:49:10.510Z,20.30
2023-04-04T12:50:26.937Z,20.30
2023-04-04T12:51:33.943Z,20.30
2023-04-04T12:52:41.788Z,20.30
2023-04-04T12:53:55.198Z,20.30
2023-04-04T12:55:11.212Z,20.30
2023-04-04T12:56:15.568Z,20.40
2023-04-04T12:57:24.792Z,20.30
2023-04-04T12:58:34.198Z,20.30
2023-04-04T12:59:40.083Z,20.30
2023-04-04T13:00:44.388Z,20.40
2023-04-04T13:01:48.525Z,20.30
2023-04-04T13:02:57.713Z,20.20
2023-04-04T13:04:04.982Z,20.20
2023-04-04T13:05:10.428Z,20.10
2023-04-04T13:06:17.746Z,20.20
2023-04-04T13:07:33.075Z,20.20
2023-04-04T13:08:35.818Z,20.10
2023-04-04T13:09:56.779Z,20.10
2023-04-04T13:11:06.270Z,20.00
2023-04-04T13:12:14.548Z,20.00
2023-04-04T13:13:35.375Z,20.10
2023-04-04T13:15:07.832Z,20.20
2023-04-04T13:16:38.102Z,20.10
2023-04-04T13:17:48.521Z,20.10
2023-04-04T13:18:54.596Z,19.90
2023-04-04T13:19:58.247Z,19.90
2023-04-04T13:21:01.094Z,19.80
2023-04-04T13:22:03.985Z,19.80
2023-04-04T13:23:09.310Z,19.80
2023-04-04T13:24:15.132Z,19.70
2023-04-04T13:25:18.405Z,19.60
2023-04-04T13:26:29.713Z,19.60
2023-04-04T13:27:34.382Z,19.70
2023-04-04T13:28:37.507Z,19.80
2023-04-04T13:29:44.650Z,19.80
2023-04-04T13:30:49.941Z,19.90
2023-04-04T13:31:55.186Z,20.00
2023-04-04T13:33:05.329Z,20.00
2023-04-04T13:34:13.870Z,20.10
2023-04-04T13:35:21.705Z,20.10
2023-04-04T13:36:28.562Z,20.00
2023-04-04T13:37:34.777Z,19.90
2023-04-04T13:38:38.173Z,19.90
2023-04-04T13:39:44.676Z,19.90
2023-04-04T13:40:47.653Z,19.90
2023-04-04T13:41:50.611Z,20.00
2023-04-04T13:42:55.350Z,20.00
2023-04-04T13:43:57.939Z,20.10
2023-04-04T13:45:03.440Z,20.20
2023-04-04T13:46:06.561Z,20.30
2023-04-04T13:47:15.084Z,20.40
2023-04-04T13:48:18.206Z,20.50
2023-04-04T13:49:21.899Z,20.60
2023-04-04T13:50:24.502Z,20.60
2023-04-04T13:51:27.658Z,20.60
2023-04-04T13:52:30.221Z,20.70
2023-04-04T13:53:35.234Z,20.80
2023-04-04T13:54:40.471Z,20.80
2023-04-04T13:55:57.404Z,20.90
2023-04-04T13:57:06.957Z,20.90
2023-04-04T13:58:10.284Z,21.00
2023-04-04T13:59:14.814Z,21.00
2023-04-04T14:00:17.581Z,21.00
2023-04-04T14:01:22.990Z,21.00
2023-04-04T14:02:26.221Z,21.00
2023-04-04T14:03:30.015Z,20.80
2023-04-04T14:04:32.449Z,20.40
2023-04-04T14:05:35.861Z,20.10
2023-04-04T14:06:38.491Z,20.00
2023-04-04T14:07:44.893Z,19.90
2023-04-04T14:08:49.934Z,19.80
2023-04-04T14:09:52.347Z,19.90
2023-04-04T14:10:54.747Z,20.10
2023-04-04T14:11:57.229Z,20.20
2023-04-04T14:13:03.892Z,20.30
2023-04-04T14:14:06.970Z,20.40
2023-04-04T14:15:10.411Z,20.40
2023-04-04T14:16:12.833Z,20.50
2023-04-04T14:17:15.337Z,20.50
2023-04-04T14:18:17.781Z,20.60
2023-04-04T14:19:20.338Z,20.60
2023-04-04T14:20:22.982Z,20.60
2023-04-04T14:21:25.855Z,20.70
2023-04-04T14:22:28.289Z,20.70
2023-04-04T14:23:31.740Z,20.70
2023-04-04T14:24:34.320Z,20.70
2023-04-04T14:25:36.645Z,20.80
2023-04-04T14:26:38.975Z,20.80
2023-04-04T14:27:41.451Z,20.90
2023-04-04T14:28:43.904Z,20.80
2023-04-04T14:29:46.966Z,20.60
2023-04-04T14:30:52.203Z,20.50
2023-04-04T14:31:59.504Z,20.50
2023-04-04T14:33:01.911Z,20.30
2023-04-04T14:34:04.892Z,20.30
2023-04-04T14:35:07.906Z,20.40
2023-04-04T14:36:10.639Z,20.30
2023-04-04T14:37:13.026Z,20.40
2023-04-04T14:38:16.572Z,20.50
2023-04-04T14:39:19.567Z,20.50
2023-04-04T14:40:22.740Z,20.60
2023-04-04T14:41:25.240Z,20.60
2023-04-04T14:42:28.533Z,20.70
2023-04-04T14:43:31.138Z,20.80
2023-04-04T14:44:34.827Z,20.80
2023-04-04T14:45:37.500Z,20.90
2023-04-04T14:46:40.329Z,20.90
2023-04-04T14:47:42.946Z,20.80
2023-04-04T14:48:47.731Z,20.50
2023-04-04T14:49:50.807Z,20.30
2023-04-04T14:50:53.654Z,20.30
2023-04-04T14:51:56.437Z,20.30
2023-04-04T14:52:58.927Z,20.10
2023-04-04T14:54:01.645Z,19.90
2023-04-04T14:55:05.168Z,20.00
2023-04-04T14:56:07.897Z,20.10
2023-04-04T14:57:10.527Z,20.20
2023-04-04T14:58:13.103Z,20.30
2023-04-04T14:59:15.560Z,20.50
2023-04-04T15:00:20.837Z,20.70
2023-04-04T15:01:23.605Z,20.80
2023-04-04T15:02:28.332Z,20.90
2023-04-04T15:03:31.012Z,20.80
2023-04-04T15:04:33.678Z,20.90
2023-04-04T15:05:36.742Z,20.90
2023-04-04T15:06:39.533Z,20.90
2023-04-04T15:07:42.535Z,20.90
2023-04-04T15:08:45.009Z,20.90
2023-04-04T15:09:48.856Z,20.90
2023-04-04T15:10:51.364Z,20.90
2023-04-04T15:11:53.815Z,20.90
2023-04-04T15:12:56.519Z,20.90
2023-04-04T15:13:59.074Z,20.90
2023-04-04T15:15:01.474Z,21.00
2023-04-04T15:16:05.997Z,20.90
2023-04-04T15:17:08.471Z,20.90
2023-04-04T15:18:11.057Z,20.60
2023-04-04T15:19:13.863Z,20.50
2023-04-04T15:20:16.598Z,20.30
2023-04-04T15:21:18.952Z,19.90
2023-04-04T15:22:21.610Z,19.70
2023-04-04T15:23:24.093Z,19.60
2023-04-04T15:24:26.515Z,19.60
2023-04-04T15:25:29.825Z,19.60
2023-04-04T15:26:33.124Z,19.50
2023-04-04T15:27:38.789Z,19.50
2023-04-04T15:28:44.803Z,19.10
2023-04-04T15:29:47.246Z,18.80
2023-04-04T15:30:52.497Z,18.80
2023-04-04T15:31:54.907Z,18.50
2023-04-04T15:32:57.431Z,18.30
2023-04-04T15:34:00.675Z,18.40
2023-04-04T15:35:04.580Z,18.30
2023-04-04T15:36:07.259Z,18.40
2023-04-04T15:37:09.657Z,18.50
2023-04-04T15:38:12.059Z,18.60
2023-04-04T15:39:14.567Z,18.50
2023-04-04T15:40:17.599Z,18.60
2023-04-04T15:41:20.367Z,18.70
2023-04-04T15:42:23.026Z,18.80
2023-04-04T15:43:29.306Z,19.00
2023-04-04T15:44:31.871Z,18.90
2023-04-04T15:45:34.400Z,19.00
2023-04-04T15:46:36.939Z,19.10
2023-04-04T15:47:39.619Z,19.00
2023-04-04T15:48:42.091Z,18.80
2023-04-04T15:49:45.260Z,19.00
2023-04-04T15:50:47.682Z,19.00
2023-04-04T15:51:50.116Z,19.00
2023-04-04T15:52:52.523Z,19.00
2023-04-04T15:53:56.117Z,18.80
2023-04-04T15:54:58.930Z,19.00
2023-04-04T15:56:02.116Z,19.00
2023-04-04T15:57:04.953Z,18.60
2023-04-04T15:58:08.871Z,18.50
2023-04-04T15:59:12.043Z,18.70
2023-04-04T16:00:17.149Z,18.90
2023-04-04T16:01:20.962Z,19.00
2023-04-04T16:02:24.175Z,19.00
2023-04-04T16:03:27.275Z,19.10
2023-04-04T16:04:31.309Z,19.20
2023-04-04T16:05:34.441Z,19.20
2023-04-04T16:06:37.768Z,19.30
2023-04-04T16:07:41.568Z,19.40
2023-04-04T16:08:44.326Z,19.40
2023-04-04T16:09:47.232Z,19.60
2023-04-04T16:10:51.151Z,19.70
2023-04-04T16:11:55.587Z,19.80
2023-04-04T16:12:58.682Z,19.80
2023-04-04T16:14:01.466Z,19.90
2023-04-04T16:15:06.104Z,20.00